Time;durP1;ratioP1;P1;durP2;ratioP2;P2;SDS_P1;SDS_P2;PMS_P1;PMS_P2;Temp;Humidity;BMP_temperature;BMP_pressure;BME280_temperature;BME280_humidity;BME280_pressure;Samples;Min_cycle;Max_cycle;Signal;HPM_P1;HPM_P2
2024/03/12 00:00:15;;;;;;;19.17;11.63;;;;;;;;;;4994580;28;20023;-93
2024/03/12 00:02:44;;;;;;;18.08;11.52;;;;;;;;;;4994583;28;20053;-94
2024/03/12 00:05:10;;;;;;;21.58;10.98;;;;;;;;;;4995745;28;20370;-93
2024/03/12 00:07:37;;;;;;;18.00;12.05;;;;;;;;;;4994563;28;20018;-93
2024/03/12 00:10:04;;;;;;;20.13;11.35;;;;;;;;;;4995799;28;20060;-92
2024/03/12 00:12:30;;;;;;;19.85;11.63;;;;;;;;;;4993624;28;20033;-94
2024/03/12 00:14:55;;;;;;;18.17;10.63;;;;;;;;;;4994349;28;20022;-93
2024/03/12 00:17:20;;;;;;;17.40;11.27;;;;;;;;;;4994336;28;20030;-93
2024/03/12 00:19:46;;;;;;;19.05;11.35;;;;;;;;;;4995234;28;20029;-93
2024/03/12 00:22:14;;;;;;;20.95;11.80;;;;;;;;;;4994205;28;20027;-93
2024/03/12 00:24:40;;;;;;;19.65;11.07;;;;;;;;;;4994237;28;20045;-95
2024/03/12 00:27:06;;;;;;;18.92;11.98;;;;;;;;;;4994253;28;20026;-93
2024/03/12 00:29:31;;;;;;;18.83;10.68;;;;;;;;;;4995253;28;20362;-92
2024/03/12 00:31:57;;;;;;;24.15;13.88;;;;;;;;;;4993956;28;20041;-93
2024/03/12 00:34:24;;;;;;;18.75;12.48;;;;;;;;;;4994205;28;20024;-94
2024/03/12 00:36:50;;;;;;;24.17;14.77;;;;;;;;;;4993921;28;20026;-93
2024/03/12 00:39:16;;;;;;;20.90;13.52;;;;;;;;;;4994036;28;20014;-94
2024/03/12 00:41:41;;;;;;;26.08;16.00;;;;;;;;;;4993573;28;20022;-96
2024/03/12 00:44:06;;;;;;;23.77;13.77;;;;;;;;;;4994156;28;20030;-95
2024/03/12 00:46:31;;;;;;;20.45;13.77;;;;;;;;;;4993697;28;20026;-95
2024/03/12 00:48:57;;;;;;;21.13;13.98;;;;;;;;;;4993822;28;20476;-96
2024/03/12 00:51:22;;;;;;;19.15;12.40;;;;;;;;;;4993709;28;20054;-96
2024/03/12 00:53:47;;;;;;;24.92;14.50;;;;;;;;;;4993520;28;20015;-95
2024/03/12 00:56:15;;;;;;;23.60;13.20;;;;;;;;;;4993463;28;20504;-96
2024/03/12 00:58:40;;;;;;;21.98;13.70;;;;;;;;;;4993741;28;20022;-95
2024/03/12 01:01:06;;;;;;;20.33;12.43;;;;;;;;;;4993583;28;20492;-95
2024/03/12 01:03:32;;;;;;;21.42;13.60;;;;;;;;;;4993601;28;20353;-95
2024/03/12 01:05:57;;;;;;;21.55;13.80;;;;;;;;;;4993276;28;20023;-95
2024/03/12 01:08:23;;;;;;;22.23;13.77;;;;;;;;;;4994601;28;20029;-95
2024/03/12 01:10:49;;;;;;;28.08;13.85;;;;;;;;;;4993265;28;20022;-93
2024/03/12 01:13:15;;;;;;;21.05;12.52;;;;;;;;;;4993331;28;20473;-93
2024/03/12 01:15:40;;;;;;;20.65;13.48;;;;;;;;;;4993050;28;20027;-93
2024/03/12 01:18:07;;;;;;;19.67;12.77;;;;;;;;;;4993234;28;20026;-94
2024/03/12 01:20:36;;;;;;;19.73;12.57;;;;;;;;;;4993008;28;20014;-92
2024/03/12 01:23:01;;;;;;;24.73;13.48;;;;;;;;;;4992875;28;20022;-93
2024/03/12 01:25:29;;;;;;;19.65;11.80;;;;;;;;;;4992973;28;20033;-92
2024/03/12 01:27:55;;;;;;;25.52;13.45;;;;;;;;;;4992653;28;20041;-93
2024/03/12 01:30:26;;;;;;;22.98;14.07;;;;;;;;;;4992793;28;20028;-94
2024/03/12 01:32:52;;;;;;;22.85;13.35;;;;;;;;;;4992592;28;20118;-93
2024/03/12 01:35:20;;;;;;;23.27;13.95;;;;;;;;;;4992477;28;20026;-93
2024/03/12 01:37:46;;;;;;;20.88;13.70;;;;;;;;;;4992479;28;20032;-93
2024/03/12 01:40:21;;;;;;;23.42;13.82;;;;;;;;;;4992669;28;20455;-93
2024/03/12 01:42:48;;;;;;;27.35;15.25;;;;;;;;;;5025411;28;20018;-95
2024/03/12 01:45:14;;;;;;;25.63;15.00;;;;;;;;;;4992269;28;20018;-93
2024/03/12 01:47:40;;;;;;;23.42;14.00;;;;;;;;;;4992769;28;20061;-93
2024/03/12 01:50:07;;;;;;;30.60;18.20;;;;;;;;;;4992241;28;20026;-93
2024/03/12 01:52:33;;;;;;;24.48;13.57;;;;;;;;;;4992479;28;20264;-93
2024/03/12 01:54:58;;;;;;;21.77;13.20;;;;;;;;;;4993499;28;20104;-92
2024/03/12 01:57:23;;;;;;;19.73;12.63;;;;;;;;;;4993384;28;20465;-93
2024/03/12 01:59:50;;;;;;;19.95;12.43;;;;;;;;;;4992162;28;20029;-93
2024/03/12 02:02:16;;;;;;;22.95;14.15;;;;;;;;;;4993452;28;20097;-94
2024/03/12 02:04:41;;;;;;;20.02;13.52;;;;;;;;;;4992381;28;20022;-93
2024/03/12 02:07:07;;;;;;;23.07;13.67;;;;;;;;;;4991805;28;20030;-93
2024/03/12 02:09:32;;;;;;;22.95;14.50;;;;;;;;;;4993320;28;20275;-93
2024/03/12 02:11:57;;;;;;;30.38;15.65;;;;;;;;;;4993345;28;20026;-92
2024/03/12 02:14:22;;;;;;;26.42;15.20;;;;;;;;;;4991766;28;20026;-92
2024/03/12 02:16:50;;;;;;;22.88;14.25;;;;;;;;;;4992842;28;20026;-92
2024/03/12 02:19:17;;;;;;;22.08;13.45;;;;;;;;;;4992660;28;20014;-91
2024/03/12 02:21:42;;;;;;;29.25;14.40;;;;;;;;;;4991594;28;20476;-92
2024/03/12 02:24:07;;;;;;;26.15;14.15;;;;;;;;;;4992873;28;20106;-93
2024/03/12 02:26:33;;;;;;;25.48;15.82;;;;;;;;;;4992722;28;20025;-93
2024/03/12 02:28:59;;;;;;;29.30;15.52;;;;;;;;;;4992585;28;20038;-93
2024/03/12 02:31:24;;;;;;;37.78;19.63;;;;;;;;;;4991396;28;20105;-94
2024/03/12 02:33:49;;;;;;;25.60;15.77;;;;;;;;;;4992751;28;20057;-91
2024/03/12 02:36:15;;;;;;;38.33;17.35;;;;;;;;;;4991997;28;20058;-91
2024/03/12 02:38:40;;;;;;;31.30;17.55;;;;;;;;;;4992593;28;20026;-94
2024/03/12 02:41:07;;;;;;;30.77;17.30;;;;;;;;;;4991262;28;20030;-92
2024/03/12 02:43:32;;;;;;;29.23;15.65;;;;;;;;;;4992604;28;20098;-93
2024/03/12 02:45:57;;;;;;;28.25;13.63;;;;;;;;;;4992534;28;20056;-92
2024/03/12 02:48:25;;;;;;;24.75;14.05;;;;;;;;;;4992545;28;20381;-93
2024/03/12 02:50:50;;;;;;;29.92;15.35;;;;;;;;;;4992631;28;20330;-93
2024/03/12 02:53:16;;;;;;;28.88;15.25;;;;;;;;;;5023852;28;20065;-93
2024/03/12 02:55:42;;;;;;;26.92;13.02;;;;;;;;;;4992368;28;20061;-93
2024/03/12 02:58:07;;;;;;;23.08;13.35;;;;;;;;;;4992611;28;20381;-93
2024/03/12 03:00:33;;;;;;;25.77;12.65;;;;;;;;;;4992415;28;20011;-92
2024/03/12 03:02:58;;;;;;;23.35;12.20;;;;;;;;;;4992197;28;20022;-93
2024/03/12 03:05:24;;;;;;;24.85;13.15;;;;;;;;;;4992240;28;20027;-92
2024/03/12 03:07:49;;;;;;;20.08;11.68;;;;;;;;;;4992365;28;20026;-93
2024/03/12 03:10:15;;;;;;;23.23;12.52;;;;;;;;;;4991100;28;20488;-90
2024/03/12 03:12:41;;;;;;;21.42;11.65;;;;;;;;;;5023233;28;20086;-90
2024/03/12 03:15:07;;;;;;;29.55;13.02;;;;;;;;;;4992099;28;20018;-90
2024/03/12 03:17:33;;;;;;;20.08;10.85;;;;;;;;;;4992051;28;20031;-91
2024/03/12 03:19:58;;;;;;;21.35;11.82;;;;;;;;;;4991020;28;20033;-91
2024/03/12 03:22:24;;;;;;;29.43;12.30;;;;;;;;;;4991972;28;20045;-90
2024/03/12 03:24:49;;;;;;;21.38;12.55;;;;;;;;;;4990589;28;20264;-90
2024/03/12 03:27:14;;;;;;;24.50;13.75;;;;;;;;;;4990866;28;20052;-91
2024/03/12 03:29:39;;;;;;;26.08;12.15;;;;;;;;;;4990951;28;20069;-90
2024/03/12 03:32:06;;;;;;;23.45;12.60;;;;;;;;;;4992047;28;20047;-91
2024/03/12 03:34:32;;;;;;;25.88;13.88;;;;;;;;;;4992214;28;20492;-90
2024/03/12 03:36:57;;;;;;;29.42;14.98;;;;;;;;;;4991811;28;20038;-90
2024/03/12 03:39:30;;;;;;;28.77;13.73;;;;;;;;;;5023552;28;20022;-91
2024/03/12 03:41:55;;;;;;;26.45;14.13;;;;;;;;;;4991917;28;20469;-90
2024/03/12 03:44:21;;;;;;;27.55;14.40;;;;;;;;;;4992098;28;20026;-90
2024/03/12 03:46:46;;;;;;;26.83;13.45;;;;;;;;;;4991826;28;20051;-90
2024/03/12 03:49:12;;;;;;;26.40;14.55;;;;;;;;;;4994863;28;20023;-90
2024/03/12 03:51:37;;;;;;;28.48;13.88;;;;;;;;;;4995551;28;20515;-90
2024/03/12 03:54:02;;;;;;;25.80;13.60;;;;;;;;;;4995326;28;20460;-90
2024/03/12 03:56:31;;;;;;;25.33;13.23;;;;;;;;;;4995180;28;20836;-90
2024/03/12 03:59:01;;;;;;;27.20;13.65;;;;;;;;;;4995406;28;20019;-90
2024/03/12 04:01:28;;;;;;;44.40;14.75;;;;;;;;;;4995207;28;20029;-90
2024/03/12 04:03:53;;;;;;;36.55;17.10;;;;;;;;;;4993983;28;20023;-90
2024/03/12 04:06:21;;;;;;;27.48;14.77;;;;;;;;;;4994016;28;20567;-90
2024/03/12 04:08:46;;;;;;;28.33;13.45;;;;;;;;;;4995284;28;20025;-91
2024/03/12 04:11:12;;;;;;;32.25;15.23;;;;;;;;;;4993663;28;20022;-90
2024/03/12 04:13:39;;;;;;;26.02;13.88;;;;;;;;;;4995223;28;20018;-90
2024/03/12 04:16:05;;;;;;;28.90;12.95;;;;;;;;;;4994797;28;20023;-90
2024/03/12 04:18:33;;;;;;;33.20;16.40;;;;;;;;;;4994870;28;20034;-91
2024/03/12 04:20:58;;;;;;;27.83;13.85;;;;;;;;;;4994904;28;20023;-90
2024/03/12 04:23:23;;;;;;;20.33;12.32;;;;;;;;;;5026182;28;20169;-90
2024/03/12 04:25:48;;;;;;;21.87;12.53;;;;;;;;;;4993731;28;20049;-90
2024/03/12 04:28:16;;;;;;;26.00;13.02;;;;;;;;;;4993582;28;20338;-90
2024/03/12 04:30:41;;;;;;;34.80;13.15;;;;;;;;;;5026334;28;20429;-90
2024/03/12 04:33:06;;;;;;;22.30;12.32;;;;;;;;;;4994699;28;20088;-89
2024/03/12 04:35:31;;;;;;;32.43;12.23;;;;;;;;;;5025944;28;20428;-90
2024/03/12 04:37:59;;;;;;;21.47;11.33;;;;;;;;;;4994470;28;20726;-90
2024/03/12 04:40:25;;;;;;;22.38;10.70;;;;;;;;;;4993253;28;20681;-90
2024/03/12 04:42:53;;;;;;;20.33;10.77;;;;;;;;;;4993344;28;20058;-90
2024/03/12 04:45:20;;;;;;;22.75;10.10;;;;;;;;;;4993257;28;20076;-90
2024/03/12 04:47:46;;;;;;;18.40;9.85;;;;;;;;;;4992892;28;20029;-90
2024/03/12 04:50:13;;;;;;;19.08;8.85;;;;;;;;;;4994449;28;20018;-90
2024/03/12 04:52:40;;;;;;;17.63;9.00;;;;;;;;;;4994345;28;20097;-90
2024/03/12 04:55:05;;;;;;;17.98;9.07;;;;;;;;;;4994222;28;20014;-90
2024/03/12 04:57:30;;;;;;;19.35;10.02;;;;;;;;;;4993915;28;20056;-90
2024/03/12 04:59:56;;;;;;;15.93;9.57;;;;;;;;;;4993809;28;20046;-89
2024/03/12 05:02:21;;;;;;;17.15;8.23;;;;;;;;;;4994189;28;20275;-89
2024/03/12 05:04:46;;;;;;;15.77;7.27;;;;;;;;;;4992791;28;20026;-90
2024/03/12 05:07:11;;;;;;;15.38;7.65;;;;;;;;;;4993829;28;20321;-90
2024/03/12 05:09:37;;;;;;;12.13;6.80;;;;;;;;;;4993988;28;20057;-90
2024/03/12 05:12:02;;;;;;;11.52;6.63;;;;;;;;;;4992604;28;20034;-91
2024/03/12 05:14:27;;;;;;;10.82;6.40;;;;;;;;;;4993876;28;20384;-90
2024/03/12 05:16:54;;;;;;;11.18;6.85;;;;;;;;;;4993628;28;20484;-90
2024/03/12 05:19:20;;;;;;;16.98;8.13;;;;;;;;;;4992659;28;20447;-90
2024/03/12 05:21:47;;;;;;;11.45;6.88;;;;;;;;;;4993583;28;20061;-90
2024/03/12 05:24:17;;;;;;;14.13;6.95;;;;;;;;;;4993696;28;20381;-90
2024/03/12 05:26:47;;;;;;;13.88;6.03;;;;;;;;;;4993450;28;20102;-90
2024/03/12 05:29:13;;;;;;;12.18;5.50;;;;;;;;;;4993657;28;20014;-90
2024/03/12 05:31:38;;;;;;;10.38;4.93;;;;;;;;;;4993660;28;20022;-90
2024/03/12 05:34:14;;;;;;;9.95;5.78;;;;;;;;;;4993372;28;20023;-90
2024/03/12 05:36:42;;;;;;;8.50;4.47;;;;;;;;;;4993130;28;20041;-90
2024/03/12 05:39:18;;;;;;;10.82;4.50;;;;;;;;;;4993415;28;20022;-90
2024/03/12 05:48:06;;;;;;;9.45;4.75;;;;;;;;;;4993233;28;20098;-90
2024/03/12 05:50:02;;;;;;;4.85;3.22;;;;;;;;;;4993238;28;20077;-90
2024/03/12 05:52:28;;;;;;;5.47;3.22;;;;;;;;;;4992007;28;20022;-90
2024/03/12 05:54:53;;;;;;;5.33;3.60;;;;;;;;;;4992938;28;20384;-91
2024/03/12 05:57:19;;;;;;;6.88;3.17;;;;;;;;;;4992829;28;20288;-89
2024/03/12 05:59:44;;;;;;;10.55;3.75;;;;;;;;;;4991777;28;20384;-90
2024/03/12 06:02:10;;;;;;;4.63;2.80;;;;;;;;;;4992976;28;20105;-90
2024/03/12 06:04:35;;;;;;;3.77;2.20;;;;;;;;;;4992743;28;20359;-90
2024/03/12 06:07:01;;;;;;;3.57;2.40;;;;;;;;;;4992757;28;20303;-90
2024/03/12 06:09:27;;;;;;;4.13;2.00;;;;;;;;;;4993011;28;20778;-90
2024/03/12 06:11:52;;;;;;;4.18;2.10;;;;;;;;;;4992255;28;20105;-90
2024/03/12 06:14:18;;;;;;;3.17;1.98;;;;;;;;;;4991523;28;20058;-90
2024/03/12 06:16:45;;;;;;;3.70;1.90;;;;;;;;;;4991284;28;20038;-89
2024/03/12 06:19:11;;;;;;;5.30;2.13;;;;;;;;;;4991567;28;20018;-90
2024/03/12 06:21:36;;;;;;;3.42;1.70;;;;;;;;;;4992736;28;20086;-90
2024/03/12 06:24:01;;;;;;;3.95;1.38;;;;;;;;;;4992519;28;20022;-90
2024/03/12 06:26:26;;;;;;;4.90;1.38;;;;;;;;;;4992687;28;20018;-90
2024/03/12 06:28:52;;;;;;;3.53;1.20;;;;;;;;;;4992682;28;20034;-90
2024/03/12 06:31:18;;;;;;;3.30;1.38;;;;;;;;;;4991332;28;20271;-90
2024/03/12 06:33:43;;;;;;;2.67;1.30;;;;;;;;;;4991087;28;20019;-90
2024/03/12 06:36:12;;;;;;;2.10;1.02;;;;;;;;;;4991171;28;20022;-89
2024/03/12 06:38:37;;;;;;;4.70;1.10;;;;;;;;;;4991143;28;20134;-90
2024/03/12 06:41:05;;;;;;;5.13;1.33;;;;;;;;;;4991188;28;20421;-90
2024/03/12 06:43:30;;;;;;;1.33;0.93;;;;;;;;;;4992360;28;20294;-90
2024/03/12 06:45:56;;;;;;;2.90;1.17;;;;;;;;;;4991168;28;20026;-91
2024/03/12 06:48:21;;;;;;;2.38;1.10;;;;;;;;;;4992363;28;20022;-90
2024/03/12 06:50:47;;;;;;;3.40;1.50;;;;;;;;;;4992413;28;20468;-90
2024/03/12 06:53:14;;;;;;;3.03;0.85;;;;;;;;;;4992324;28;20084;-90
2024/03/12 06:55:40;;;;;;;2.55;1.33;;;;;;;;;;4992212;28;20105;-90
2024/03/12 06:58:11;;;;;;;4.53;1.52;;;;;;;;;;4991401;28;20383;-90
2024/03/12 07:00:44;;;;;;;3.35;1.45;;;;;;;;;;4992274;28;20033;-90
2024/03/12 07:03:09;;;;;;;1.00;0.90;;;;;;;;;;4992282;28;20077;-91
2024/03/12 07:05:43;;;;;;;2.42;0.70;;;;;;;;;;4990985;28;20489;-90
2024/03/12 07:08:09;;;;;;;2.22;0.70;;;;;;;;;;4992085;28;20383;-90
2024/03/12 07:10:40;;;;;;;2.65;0.75;;;;;;;;;;4992243;28;20025;-91
2024/03/12 07:13:07;;;;;;;6.47;0.90;;;;;;;;;;4992269;28;20029;-91
2024/03/12 07:15:34;;;;;;;5.70;0.65;;;;;;;;;;4991988;28;20252;-90
2024/03/12 07:17:59;;;;;;;2.65;0.60;;;;;;;;;;4992520;28;20033;-91
2024/03/12 07:20:27;;;;;;;2.40;0.60;;;;;;;;;;4990864;28;20109;-91
2024/03/12 07:22:53;;;;;;;1.17;0.50;;;;;;;;;;4994560;28;20492;-90
2024/03/12 07:25:19;;;;;;;1.50;0.80;;;;;;;;;;4994533;28;20033;-91
2024/03/12 07:27:45;;;;;;;4.75;0.90;;;;;;;;;;4995771;28;20017;-90
2024/03/12 07:30:10;;;;;;;2.33;0.63;;;;;;;;;;4994542;28;20393;-91
2024/03/12 07:32:36;;;;;;;1.95;0.60;;;;;;;;;;4995661;28;20619;-92
2024/03/12 07:35:02;;;;;;;2.42;0.90;;;;;;;;;;4995870;28;20022;-91
2024/03/12 07:37:27;;;;;;;2.83;0.47;;;;;;;;;;4994217;28;20026;-93
2024/03/12 07:39:52;;;;;;;3.90;0.70;;;;;;;;;;4995568;28;20030;-92
2024/03/12 07:42:21;;;;;;;3.87;0.70;;;;;;;;;;4994477;28;20467;-92
2024/03/12 07:44:48;;;;;;;1.77;1.00;;;;;;;;;;4995814;28;20256;-92
2024/03/12 07:47:17;;;;;;;4.85;1.00;;;;;;;;;;4995629;28;20439;-92
2024/03/12 07:49:43;;;;;;;1.02;0.80;;;;;;;;;;4994372;28;20026;-92
2024/03/12 07:52:11;;;;;;;1.92;0.65;;;;;;;;;;4995765;28;20022;-92
2024/03/12 07:54:37;;;;;;;2.53;0.38;;;;;;;;;;4994571;28;20018;-93
2024/03/12 07:57:02;;;;;;;1.20;0.60;;;;;;;;;;4995534;28;20040;-92
2024/03/12 07:59:31;;;;;;;4.90;0.60;;;;;;;;;;4994465;28;20022;-92
2024/03/12 08:01:57;;;;;;;3.50;0.50;;;;;;;;;;4994439;28;20022;-92
2024/03/12 08:04:25;;;;;;;1.98;0.40;;;;;;;;;;4994357;28;20455;-93
2024/03/12 08:06:50;;;;;;;1.80;0.98;;;;;;;;;;4994317;28;20053;-94
2024/03/12 08:09:15;;;;;;;1.15;0.60;;;;;;;;;;4994468;28;20061;-93
2024/03/12 08:11:41;;;;;;;3.60;0.70;;;;;;;;;;4994490;28;20483;-93
2024/03/12 08:14:06;;;;;;;0.60;0.28;;;;;;;;;;4994145;28;20868;-93
2024/03/12 08:16:32;;;;;;;1.30;0.20;;;;;;;;;;4994215;28;20033;-93
2024/03/12 08:19:01;;;;;;;7.50;0.47;;;;;;;;;;4994419;28;20022;-93
2024/03/12 08:21:27;;;;;;;2.00;0.25;;;;;;;;;;4994325;28;20022;-94
2024/03/12 08:23:53;;;;;;;1.25;0.30;;;;;;;;;;4994360;28;20030;-94
2024/03/12 08:26:19;;;;;;;2.83;0.40;;;;;;;;;;4994171;28;20113;-93
2024/03/12 08:28:46;;;;;;;2.38;0.30;;;;;;;;;;4995378;28;20445;-94
2024/03/12 08:31:11;;;;;;;0.55;0.17;;;;;;;;;;4994144;28;20077;-94
2024/03/12 08:33:37;;;;;;;2.05;0.25;;;;;;;;;;4993453;28;20019;-94
2024/03/12 08:36:03;;;;;;;3.03;0.40;;;;;;;;;;4994140;28;20022;-94
2024/03/12 08:38:28;;;;;;;0.98;0.32;;;;;;;;;;4994056;28;20502;-94
2024/03/12 08:40:55;;;;;;;0.45;0.30;;;;;;;;;;4993977;28;20025;-94
2024/03/12 08:43:21;;;;;;;0.47;0.13;;;;;;;;;;4994072;28;20480;-94
2024/03/12 08:45:46;;;;;;;0.93;0.30;;;;;;;;;;4993957;28;20026;-95
2024/03/12 08:48:11;;;;;;;0.90;0.20;;;;;;;;;;4993804;28;20015;-94
2024/03/12 08:50:37;;;;;;;0.65;0.20;;;;;;;;;;4993864;28;20018;-94
2024/03/12 08:53:02;;;;;;;1.27;0.10;;;;;;;;;;4994036;28;20050;-95
2024/03/12 08:55:28;;;;;;;4.45;0.40;;;;;;;;;;4994113;28;20381;-94
2024/03/12 08:57:54;;;;;;;0.75;0.10;;;;;;;;;;4993695;28;20116;-94
2024/03/12 09:00:19;;;;;;;1.25;0.20;;;;;;;;;;4993686;28;20117;-95
2024/03/12 09:02:45;;;;;;;2.25;0.20;;;;;;;;;;4993766;28;20014;-94
2024/03/12 09:05:10;;;;;;;5.50;0.47;;;;;;;;;;4993814;28;20023;-94
2024/03/12 09:07:38;;;;;;;2.17;0.25;;;;;;;;;;4999338;28;20047;-94
2024/03/12 09:10:12;;;;;;;1.75;0.30;;;;;;;;;;4995259;28;20106;-96
2024/03/12 09:12:37;;;;;;;3.30;0.38;;;;;;;;;;4993462;28;20053;-92
2024/03/12 09:15:03;;;;;;;1.27;0.32;;;;;;;;;;4993498;28;20051;-94
2024/03/12 09:17:28;;;;;;;0.57;0.30;;;;;;;;;;4993574;28;20129;-94
2024/03/12 09:19:53;;;;;;;1.42;0.20;;;;;;;;;;4993466;28;20018;-94
2024/03/12 09:22:18;;;;;;;4.75;0.20;;;;;;;;;;4993512;28;20057;-95
2024/03/12 09:24:44;;;;;;;0.77;0.20;;;;;;;;;;4994656;28;20417;-95
2024/03/12 09:27:10;;;;;;;1.17;0.10;;;;;;;;;;4993265;28;20029;-94
2024/03/12 09:29:35;;;;;;;1.65;0.20;;;;;;;;;;4993398;28;20374;-94
2024/03/12 09:32:03;;;;;;;0.85;0.30;;;;;;;;;;4993222;28;20469;-94
2024/03/12 09:34:28;;;;;;;0.90;0.28;;;;;;;;;;4993238;28;20026;-94
2024/03/12 09:36:54;;;;;;;0.43;0.10;;;;;;;;;;4993250;28;20088;-95
2024/03/12 09:39:19;;;;;;;0.17;0.10;;;;;;;;;;4993123;28;20018;-94
2024/03/12 09:41:52;;;;;;;2.17;0.20;;;;;;;;;;4993160;28;20018;-95
2024/03/12 09:44:17;;;;;;;1.25;0.32;;;;;;;;;;4992995;28;20018;-96
2024/03/12 09:46:45;;;;;;;1.45;0.32;;;;;;;;;;4991754;28;20076;-96
2024/03/12 09:49:13;;;;;;;4.03;0.30;;;;;;;;;;4993054;28;20033;-95
2024/03/12 09:51:38;;;;;;;1.45;0.28;;;;;;;;;;4993169;28;20384;-94
2024/03/12 09:54:04;;;;;;;0.63;0.20;;;;;;;;;;4992852;28;20022;-93
2024/03/12 09:56:32;;;;;;;1.05;0.40;;;;;;;;;;4992638;28;20121;-94
2024/03/12 09:58:59;;;;;;;0.70;0.15;;;;;;;;;;4992862;28;20025;-95
2024/03/12 10:01:24;;;;;;;4.13;0.28;;;;;;;;;;4976952;28;20053;-94
2024/03/12 10:03:53;;;;;;;1.17;0.25;;;;;;;;;;4992810;28;20022;-95
2024/03/12 10:06:18;;;;;;;1.42;0.20;;;;;;;;;;4992413;28;20420;-94
2024/03/12 10:08:44;;;;;;;1.23;0.20;;;;;;;;;;4992682;28;20073;-95
2024/03/12 10:11:09;;;;;;;1.30;0.20;;;;;;;;;;4992553;28;20105;-94
2024/03/12 10:13:36;;;;;;;1.98;0.25;;;;;;;;;;4992467;28;20022;-94
2024/03/12 10:16:03;;;;;;;2.58;0.47;;;;;;;;;;4992480;28;20026;-94
2024/03/12 10:18:33;;;;;;;2.00;0.30;;;;;;;;;;4992835;28;20026;-94
2024/03/12 10:21:01;;;;;;;1.23;0.35;;;;;;;;;;4992452;28;20049;-95
2024/03/12 10:23:27;;;;;;;3.58;0.25;;;;;;;;;;4992298;28;20046;-95
2024/03/12 10:26:07;;;;;;;3.10;0.30;;;;;;;;;;4992080;28;20018;-94
2024/03/12 10:28:32;;;;;;;0.45;0.20;;;;;;;;;;4992387;28;20022;-95
2024/03/12 10:31:09;;;;;;;2.50;0.45;;;;;;;;;;4992521;28;20153;-94
2024/03/12 10:33:36;;;;;;;1.98;0.32;;;;;;;;;;4992565;28;20081;-93
2024/03/12 10:36:02;;;;;;;4.50;0.20;;;;;;;;;;4992146;28;20025;-95
2024/03/12 10:38:32;;;;;;;3.28;0.38;;;;;;;;;;4992232;28;20038;-94
2024/03/12 10:41:12;;;;;;;2.88;0.73;;;;;;;;;;4992132;28;20015;-95
2024/03/12 10:43:37;;;;;;;1.95;0.40;;;;;;;;;;4992329;28;20043;-95
2024/03/12 10:46:03;;;;;;;2.80;0.43;;;;;;;;;;4992253;28;20132;-94
2024/03/12 10:48:29;;;;;;;1.40;0.52;;;;;;;;;;4991862;28;20081;-95
2024/03/12 10:50:56;;;;;;;3.10;0.40;;;;;;;;;;4991902;28;20420;-94
2024/03/12 10:53:23;;;;;;;2.22;0.43;;;;;;;;;;4991911;28;20030;-94
2024/03/12 10:55:48;;;;;;;1.65;0.52;;;;;;;;;;4992043;28;20018;-94
2024/03/12 10:58:15;;;;;;;4.50;0.60;;;;;;;;;;4995354;28;20030;-95
2024/03/12 11:00:41;;;;;;;5.78;0.40;;;;;;;;;;4996168;28;20081;-94
2024/03/12 11:03:08;;;;;;;1.77;0.43;;;;;;;;;;4996175;28;20022;-95
2024/03/12 11:05:34;;;;;;;1.45;0.40;;;;;;;;;;4995764;28;20026;-94
2024/03/12 11:07:59;;;;;;;2.53;0.50;;;;;;;;;;4995877;28;20015;-95
2024/03/12 11:10:27;;;;;;;4.50;0.60;;;;;;;;;;4995975;28;20072;-95
2024/03/12 11:12:54;;;;;;;4.55;0.70;;;;;;;;;;4995659;28;20161;-95
2024/03/12 11:15:19;;;;;;;3.53;0.60;;;;;;;;;;4995771;28;20018;-95
2024/03/12 11:17:48;;;;;;;4.38;0.70;;;;;;;;;;4995956;28;20037;-95
2024/03/12 11:20:15;;;;;;;2.78;0.95;;;;;;;;;;4996169;28;20025;-94
2024/03/12 11:22:44;;;;;;;5.47;0.75;;;;;;;;;;4995559;28;20026;-94
2024/03/12 11:25:09;;;;;;;4.13;0.63;;;;;;;;;;4995577;28;20075;-95
2024/03/12 11:27:38;;;;;;;3.05;1.00;;;;;;;;;;4995364;28;20109;-95
2024/03/12 11:30:04;;;;;;;4.28;0.93;;;;;;;;;;4995487;28;20108;-94
2024/03/12 11:32:33;;;;;;;4.97;1.00;;;;;;;;;;4995126;28;20015;-94
2024/03/12 11:35:02;;;;;;;5.22;1.17;;;;;;;;;;4995574;28;20022;-95
2024/03/12 11:37:28;;;;;;;2.22;0.63;;;;;;;;;;4995463;28;20026;-94
2024/03/12 11:40:14;;;;;;;3.83;1.08;;;;;;;;;;4995480;28;20469;-94
2024/03/12 11:42:40;;;;;;;4.20;0.80;;;;;;;;;;4995180;28;20041;-94
2024/03/12 11:45:10;;;;;;;6.13;1.40;;;;;;;;;;4995247;28;20026;-94
2024/03/12 11:47:36;;;;;;;5.88;1.25;;;;;;;;;;4995399;28;20498;-95
2024/03/12 11:50:25;;;;;;;10.98;1.10;;;;;;;;;;4995427;28;20018;-94
2024/03/12 11:52:51;;;;;;;5.13;1.13;;;;;;;;;;4995213;28;20019;-95
2024/03/12 11:55:35;;;;;;;6.07;1.13;;;;;;;;;;4995144;28;20032;-94
2024/03/12 11:58:01;;;;;;;6.38;0.93;;;;;;;;;;4995193;28;20030;-95
2024/03/12 12:00:30;;;;;;;2.10;0.65;;;;;;;;;;4995187;28;20026;-95
2024/03/12 12:02:57;;;;;;;3.80;0.80;;;;;;;;;;4995393;28;20022;-95
2024/03/12 12:05:22;;;;;;;6.68;0.98;;;;;;;;;;4994807;28;20018;-95
2024/03/12 12:07:48;;;;;;;10.10;1.33;;;;;;;;;;4994291;28;20114;-95
2024/03/12 12:10:13;;;;;;;5.10;0.98;;;;;;;;;;4994591;28;20020;-95
2024/03/12 12:12:39;;;;;;;8.80;1.13;;;;;;;;;;4994893;28;20026;-94
2024/03/12 12:15:04;;;;;;;9.32;1.83;;;;;;;;;;4994982;28;20029;-95
2024/03/12 12:17:31;;;;;;;6.68;0.80;;;;;;;;;;4994495;28;20046;-94
2024/03/12 12:20:04;;;;;;;9.82;1.00;;;;;;;;;;4994963;28;20365;-95
2024/03/12 12:22:32;;;;;;;7.47;1.27;;;;;;;;;;4994437;28;20065;-95
2024/03/12 12:24:57;;;;;;;7.18;1.10;;;;;;;;;;4994712;28;20022;-95
2024/03/12 12:27:22;;;;;;;10.15;1.77;;;;;;;;;;4994595;28;20116;-95
2024/03/12 12:29:48;;;;;;;6.03;1.05;;;;;;;;;;4994591;28;20388;-94
2024/03/12 12:32:14;;;;;;;9.73;0.93;;;;;;;;;;4994616;28;20014;-95
2024/03/12 12:34:40;;;;;;;4.78;1.02;;;;;;;;;;4994565;28;20077;-95
2024/03/12 12:37:09;;;;;;;10.05;0.93;;;;;;;;;;4995410;28;20026;-95
2024/03/12 12:39:34;;;;;;;9.32;1.02;;;;;;;;;;4994335;28;20081;-95
2024/03/12 12:42:01;;;;;;;3.00;0.95;;;;;;;;;;4994577;28;20026;-94
2024/03/12 12:44:28;;;;;;;9.73;1.00;;;;;;;;;;4994483;28;20104;-95
2024/03/12 12:46:54;;;;;;;7.40;1.38;;;;;;;;;;4994384;28;20057;-96
2024/03/12 12:49:21;;;;;;;5.32;0.90;;;;;;;;;;4995235;28;20025;-96
2024/03/12 12:51:46;;;;;;;3.20;1.10;;;;;;;;;;4994267;28;20045;-93
2024/03/12 12:54:14;;;;;;;3.67;0.50;;;;;;;;;;4994271;28;20026;-95
2024/03/12 12:56:40;;;;;;;3.30;0.80;;;;;;;;;;4994140;28;20404;-95
2024/03/12 12:59:09;;;;;;;4.75;0.98;;;;;;;;;;4996464;28;20022;-94
2024/03/12 13:01:37;;;;;;;5.20;1.30;;;;;;;;;;4994087;28;20472;-95
2024/03/12 13:04:16;;;;;;;6.85;1.60;;;;;;;;;;4994004;28;20061;-94
2024/03/12 13:06:43;;;;;;;4.50;1.02;;;;;;;;;;4993938;28;20019;-94
2024/03/12 13:09:10;;;;;;;5.97;1.75;;;;;;;;;;4993878;28;20018;-94
2024/03/12 13:11:35;;;;;;;7.30;1.33;;;;;;;;;;4994106;28;20022;-96
2024/03/12 13:14:00;;;;;;;7.78;1.13;;;;;;;;;;4993635;28;20494;-96
2024/03/12 13:16:26;;;;;;;10.15;1.35;;;;;;;;;;4993696;28;20014;-96
2024/03/12 13:18:52;;;;;;;4.88;0.70;;;;;;;;;;4993698;28;20036;-96
2024/03/12 13:21:20;;;;;;;6.53;1.20;;;;;;;;;;4993437;28;20015;-96
2024/03/12 13:23:46;;;;;;;10.52;1.50;;;;;;;;;;4993424;28;20037;-96
2024/03/12 13:26:13;;;;;;;8.05;1.52;;;;;;;;;;4993221;28;20026;-96
2024/03/12 13:28:39;;;;;;;9.82;1.13;;;;;;;;;;4993373;28;20029;-96
2024/03/12 13:31:05;;;;;;;8.25;1.30;;;;;;;;;;4993124;28;20054;-96
2024/03/12 13:33:31;;;;;;;7.43;1.55;;;;;;;;;;4993274;28;20053;-96
2024/03/12 13:35:58;;;;;;;7.78;0.95;;;;;;;;;;4993218;28;20390;-96
2024/03/12 13:38:26;;;;;;;11.60;1.65;;;;;;;;;;4993436;28;20404;-96
2024/03/12 13:40:52;;;;;;;7.90;1.33;;;;;;;;;;4993128;28;20018;-96
2024/03/12 13:43:17;;;;;;;10.20;1.23;;;;;;;;;;4994203;28;20022;-96
2024/03/12 13:45:43;;;;;;;4.38;0.90;;;;;;;;;;4993059;28;20108;-94
2024/03/12 13:48:11;;;;;;;8.80;1.00;;;;;;;;;;4992707;28;20109;-94
2024/03/12 13:50:36;;;;;;;6.78;1.05;;;;;;;;;;4993118;28;20022;-92
2024/03/12 13:53:03;;;;;;;6.22;1.20;;;;;;;;;;4992712;28;20155;-94
2024/03/12 13:55:28;;;;;;;6.93;1.83;;;;;;;;;;4992865;28;20022;-94
2024/03/12 13:57:53;;;;;;;5.60;1.17;;;;;;;;;;4993140;28;20057;-93
2024/03/12 14:00:19;;;;;;;7.43;1.55;;;;;;;;;;4992605;28;20023;-94
2024/03/12 14:02:44;;;;;;;3.60;0.70;;;;;;;;;;4992639;28;20057;-95
2024/03/12 14:05:09;;;;;;;10.30;1.00;;;;;;;;;;4992625;28;20288;-94
2024/03/12 14:07:35;;;;;;;6.80;1.15;;;;;;;;;;4992195;28;20492;-94
2024/03/12 14:10:07;;;;;;;12.43;1.48;;;;;;;;;;4992592;28;20076;-95
2024/03/12 14:12:36;;;;;;;9.00;1.65;;;;;;;;;;4992492;28;20053;-96
2024/03/12 14:15:04;;;;;;;9.25;1.00;;;;;;;;;;4992431;28;20105;-95
2024/03/12 14:17:30;;;;;;;7.47;1.20;;;;;;;;;;4992322;28;20117;-96
2024/03/12 14:19:55;;;;;;;5.32;0.90;;;;;;;;;;4992550;28;20105;-96
2024/03/12 14:22:20;;;;;;;7.97;1.00;;;;;;;;;;4992160;28;20031;-96
2024/03/12 14:24:46;;;;;;;3.92;0.88;;;;;;;;;;4992444;28;20433;-96
2024/03/12 14:27:13;;;;;;;9.00;1.23;;;;;;;;;;4992290;28;20026;-95
2024/03/12 14:29:39;;;;;;;5.38;0.68;;;;;;;;;;4992295;28;20427;-96
2024/03/12 14:32:06;;;;;;;5.93;0.90;;;;;;;;;;4991376;28;20026;-95
2024/03/12 14:34:31;;;;;;;5.30;0.80;;;;;;;;;;4991998;28;20014;-95